Fairbury, NE (68352)

2:00 PM CDT on July 24, 2014 (GMT -0500)
Crystal Springs Campground (KNEFAIRB2) Elev 1424 ft | 40.13 °N, 97.21 °W | Change Station

Current weather conditions updated 4 seconds ago

Clear
Clear
84.8 °F
Feels Like 89 °F
N
9.0
Wind Variable Wind from SE
Gusts 21.0 mph

Today is forecast to be Warmer than yesterday.

Today
High -- | Low -- °F
--% Chance of Precip.
Yesterday
High -- | Low -- °F
Precip. -- in
6:19 AM 8:50 PM
Waning Crescent, 4% visible
Pressure 30.02 in
Visibility 10.0 miles
Clouds Clear
Heat Index 89 °F
Dew Point 69 °F
Humidity 60%
Rainfall 0.00 in
Snow Depth Not available.
UV 12 out of 12
Pollen 6.50 out of 12
Air Quality Not available.
Flu Activity Not available.
METAR KHJH 241855Z AUTO 13015G20KT 10SM CLR 30/17 A3002 RMK AO2 LTG DSNT NE T02950170

More Conditions Fewer Conditions

Pressure 30.02 in
Visibility 10.0 miles
Clouds Clear
Heat Index 89 °F
Dew Point 69 °F
Humidity 60%
Rainfall 0.00 in
Snow Depth Not available.
UV 12 out of 12
Pollen 6.50 out of 12
Air Quality Not available.
Flu Activity Not available.
METAR KHJH 241855Z AUTO 13015G20KT 10SM CLR 30/17 A3002 RMK AO2 LTG DSNT NE T02950170

More Conditions Fewer Conditions

10-Day Weather Forecast

Almanac

Astronomy

Jul. 24, 2014 Rise Set
Actual Time 6:19 AM CDT 8:50 PM CDT
Civil Twilight 5:48 AM CDT 9:21 PM CDT
Nautical Twilight 5:09 AM CDT 10:00 PM CDT
Astronomical Twilight 4:26 AM CDT 10:43 PM CDT
Moon 4:28 AM CDT 7:06 PM CDT
Length of Visible Light 15h 33m
Length of Day
14h 30m
Tomorrow will be 1m 46s shorter.
Waning Crescent, 4% of the Moon is Illuminated
Today
Waning Crescent
Jul 26
New
Aug 3
First Quarter
Aug 10
Full
Aug 17
Last Quarter

Today's Extremes

State Highs State Lows

Community

WunderPhotos

Upload Photos

1,737,094 photos uploaded!

Nearby

Snow Depth

Station Depth Elevation
No new snow has been reported.

Earthquake Activity

City Distance Mag. Time & Date
No recent earthquake activity has been reported nearby.
Minimum magnitude displayed is 2.5.

Coastal Water Temperatures

Place Temperature
No Stations Reporting

Nearby Weather Stations

Station Location Temp. Heat Index Dew Point Humidity Wind Precip. Elev Updated Type
MesoWest FAIRB2 , Fairbury, NE 76 °F 74 °F - - North  at  - 0.00 in / hr 1321 ft 12:00 PM CDT MADIS
Crystal Springs Campground, Fairbury, NE 84.8 °F 89 °F 69 °F 60% SE  at  9.0 mph 0.00 in / hr 1424 ft 2:00 PM CDT Rapid Fire
APRSWXNET Plymouth NE , Plymouth, NE 81 °F 84 °F 70 °F 69% SE  at  11 mph 0.00 in / hr 1430 ft 1:15 PM CDT MADIS
MesoWest BREME1 , Hanover, KS 82 °F 80 °F - - North  at  - 0.00 in / hr 1318 ft 12:00 PM CDT MADIS
MesoWest BELVI1 , Carleton, NE 76 °F 74 °F - - North  at  - 0.00 in / hr 1532 ft 12:00 PM CDT MADIS

Show More Stations Show Fewer Stations